Aérodrome :
LOGIN :

S'inscrire | Disclaimer

   EN    FR    IT 

 










Légende :    VFR   VFR Marginal   IFR   IFR Intensif   IFR Très Intensif
Visi : 
Plafond : 
>= 8 km
>= 3000ft
5 à 8 km
1000 à 3000 ft
1500m à 5 km
500 à 1000 ft
800 à 1500m
200 à 500 ft
< 800m
< 200 ft
Symboles :   Orages  Brouillard  Fortes neiges  Fortes précipitations  Vent > 20 kt
SIGMETs :   Divers  Orages  Givrage  Turbulence  Onde Orograph.  Cendres Volcan.






- Altitude de l'aérodrome : 584 ft


LFPV - Villacoublay Vélizy

DERNIER METAR :
  • 091130Z AUTO 24009KT 200V300 CAVOK 27/14 Q1016 NOSIG

METARs EXPIRÉS :
  • 091100Z AUTO 24010KT 190V270 9999 FEW044 27/14 Q1016 NOSIG
  • 091030Z AUTO 25009KT 9999 FEW036 25/15 Q1016 NOSIG
  • 091000Z AUTO 23008KT 180V270 9999 FEW032 24/15 Q1017 NOSIG
  • 090930Z AUTO 25009KT 200V280 9999 FEW029 23/15 Q1017 NOSIG
  • 090900Z AUTO 24005KT 170V280 CAVOK 23/15 Q1017 NOSIG

TAF TAF LFPV
Valide du 09 à 09h jusqu'au 10 à 09h UTC


090800Z 0909/1009 25006KT CAVOK
TEMPO 0914/0918 24010G20KT
BECMG 0921/0923 BKN015
TEMPO 1005/1009 BKN008



MET'MAP, la Météo Aéronautique d'un coup d'oeil ! - Copyright ORBIFLY Décembre 2007 - Disclaimer

ORBIFLY MET'MAP TEAM :

Programmation & Développement : Alexandra Zaïnal
Sur une idée originale de : Baudouin d'Aumeries
Assistance à la programmation : Marc-Olivier Méhu
Soutien technique & logistique : Manuel Goepfert

Contact : metmap@orbifly.com




SOURCES & CREDITS :

   NOAA